Time;durP1;ratioP1;P1;durP2;ratioP2;P2;SDS_P1;SDS_P2;PMS_P1;PMS_P2;Temp;Humidity;BMP_temperature;BMP_pressure;BME280_temperature;BME280_humidity;BME280_pressure;Samples;Min_cycle;Max_cycle;Signal;HPM_P1;HPM_P2
2022/01/31 00:01:48;;;;;;;3.17;1.60;;;;;;;3.14;69.21;99269.84;126371;1099;104150;-78
2022/01/31 00:04:20;;;;;;;4.47;1.80;;;;;;;3.15;69.19;99273.34;126276;1099;104201;-77
2022/01/31 00:06:53;;;;;;;2.90;1.40;;;;;;;3.13;69.71;99268.09;126290;1096;104293;-77
2022/01/31 00:09:25;;;;;;;5.93;1.80;;;;;;;3.12;69.60;99265.43;126348;1099;104290;-77
2022/01/31 00:12:00;;;;;;;2.20;1.50;;;;;;;3.07;69.25;99254.84;126356;1099;104146;-78
2022/01/31 00:14:37;;;;;;;3.53;1.70;;;;;;;3.05;69.14;99259.05;126356;1099;104570;-79
2022/01/31 00:17:10;;;;;;;3.33;1.73;;;;;;;3.01;68.74;99258.03;126309;1099;104162;-77
2022/01/31 00:19:43;;;;;;;2.93;1.43;;;;;;;2.99;68.84;99262.27;126293;1099;104271;-77
2022/01/31 00:22:15;;;;;;;4.00;2.10;;;;;;;2.98;68.85;99262.20;126358;1099;104323;-78
2022/01/31 00:24:47;;;;;;;3.47;1.80;;;;;;;2.97;68.66;99263.01;126308;1097;104733;-79
2022/01/31 00:27:18;;;;;;;2.50;1.63;;;;;;;2.93;68.02;99266.27;126322;1099;104146;-77
2022/01/31 00:29:49;;;;;;;2.30;1.47;;;;;;;2.90;68.64;99267.03;126336;1099;104207;-78
2022/01/31 00:32:20;;;;;;;2.30;1.60;;;;;;;2.87;68.89;99254.81;126367;1099;104255;-78
2022/01/31 00:34:52;;;;;;;2.20;1.40;;;;;;;2.85;69.17;99266.81;126355;1099;104249;-78
2022/01/31 00:37:23;;;;;;;3.30;1.90;;;;;;;2.84;68.82;99259.84;126238;1099;104236;-78
2022/01/31 00:39:54;;;;;;;3.27;1.77;;;;;;;2.85;69.09;99265.91;126371;1099;104153;-78
2022/01/31 00:42:28;;;;;;;3.63;1.70;;;;;;;2.84;68.73;99257.25;126309;1099;104147;-78
2022/01/31 00:45:11;;;;;;;4.90;1.70;;;;;;;2.86;69.28;99246.97;126314;1099;104219;-77
2022/01/31 00:47:47;;;;;;;4.77;1.77;;;;;;;2.87;69.50;99261.70;126266;1099;104146;-77
2022/01/31 00:50:20;;;;;;;5.70;2.00;;;;;;;2.87;68.81;99244.45;126292;1099;104262;-77
2022/01/31 00:52:51;;;;;;;4.65;1.75;;;;;;;2.90;69.69;99243.71;126289;1099;104194;-78
2022/01/31 00:55:23;;;;;;;2.70;1.70;;;;;;;2.94;69.46;99245.60;126322;1098;104149;-78
2022/01/31 00:57:54;;;;;;;2.57;1.70;;;;;;;2.98;68.67;99255.30;126288;1099;104213;-78
2022/01/31 01:00:25;;;;;;;2.70;1.73;;;;;;;3.06;68.68;99245.28;126339;1099;104219;-78
2022/01/31 01:02:57;;;;;;;3.27;1.30;;;;;;;3.11;69.25;99240.31;126221;1098;104252;-79
2022/01/31 01:05:28;;;;;;;3.97;1.50;;;;;;;3.16;69.22;99251.77;126291;1099;104235;-78
2022/01/31 01:08:01;;;;;;;6.00;1.87;;;;;;;3.21;69.46;99251.17;126286;1099;104208;-78
2022/01/31 01:10:33;;;;;;;5.23;2.33;;;;;;;3.27;68.48;99234.98;126351;1099;104242;-78
2022/01/31 01:13:04;;;;;;;3.40;1.63;;;;;;;3.31;68.87;99236.02;126339;1099;104171;-77
2022/01/31 01:15:36;;;;;;;1.93;1.40;;;;;;;3.35;68.55;99241.41;126257;1099;104149;-77
2022/01/31 01:18:07;;;;;;;3.30;1.53;;;;;;;3.37;68.82;99239.77;126292;1099;104194;-78
2022/01/31 01:20:39;;;;;;;3.25;1.90;;;;;;;3.40;68.36;99232.12;126349;1099;104146;-78
2022/01/31 01:23:10;;;;;;;4.77;1.70;;;;;;;3.42;68.71;99233.06;126359;1099;104997;-78
2022/01/31 01:25:42;;;;;;;2.87;1.50;;;;;;;3.45;68.11;99236.63;126310;1099;104209;-77
2022/01/31 01:28:14;;;;;;;3.67;1.60;;;;;;;3.47;68.08;99228.08;126232;1099;104264;-78
2022/01/31 01:30:45;;;;;;;2.50;1.40;;;;;;;3.48;67.81;99229.86;126373;1098;104155;-77
2022/01/31 01:33:21;;;;;;;3.47;1.40;;;;;;;3.47;68.65;99241.05;126309;1099;104291;-77
2022/01/31 01:35:55;;;;;;;2.93;1.50;;;;;;;3.47;68.83;99238.45;126304;1099;104216;-77
2022/01/31 01:38:29;;;;;;;2.75;1.27;;;;;;;3.49;68.23;99241.11;126285;1099;104146;-77
2022/01/31 01:41:02;;;;;;;4.73;1.77;;;;;;;3.49;67.69;99252.39;126229;1099;104201;-77
2022/01/31 01:43:34;;;;;;;4.00;1.60;;;;;;;3.49;66.80;99252.39;126383;1097;104149;-77
2022/01/31 01:46:05;;;;;;;6.33;2.43;;;;;;;3.55;67.57;99236.19;126327;1099;104204;-77
2022/01/31 01:48:39;;;;;;;3.45;1.55;;;;;;;3.58;67.60;99238.92;126299;1099;104179;-77
2022/01/31 01:51:12;;;;;;;5.23;1.80;;;;;;;3.62;67.05;99235.65;126331;1099;104178;-77
2022/01/31 01:53:44;;;;;;;3.10;1.83;;;;;;;3.66;67.35;99244.44;126248;1099;104242;-78
2022/01/31 01:56:15;;;;;;;3.23;1.50;;;;;;;3.67;67.07;99241.03;126255;1099;104223;-78
2022/01/31 01:58:49;;;;;;;3.20;1.33;;;;;;;3.69;67.71;99234.19;126189;1099;104329;-78
2022/01/31 02:01:20;;;;;;;3.00;1.20;;;;;;;3.69;67.15;99232.47;126288;1099;104277;-78
2022/01/31 02:03:58;;;;;;;6.57;1.53;;;;;;;3.71;66.44;99242.92;126368;1097;104254;-78
2022/01/31 02:06:35;;;;;;;4.43;1.73;;;;;;;3.74;67.53;99237.86;126277;1099;104155;-77
2022/01/31 02:09:07;;;;;;;3.67;1.70;;;;;;;3.75;66.17;99237.92;126296;1099;104152;-78
2022/01/31 02:11:39;;;;;;;2.53;1.57;;;;;;;3.76;65.61;99238.84;126284;1099;104280;-77
2022/01/31 02:14:12;;;;;;;3.20;1.53;;;;;;;3.79;66.50;99249.34;126332;1099;104701;-78
2022/01/31 02:17:02;;;;;;;6.67;2.20;;;;;;;3.85;63.66;99247.02;126372;1099;104589;-78
2022/01/31 02:19:40;;;;;;;5.17;1.77;;;;;;;3.89;63.80;99238.52;126206;1099;105383;-78
2022/01/31 02:22:36;;;;;;;5.70;1.73;;;;;;;3.90;65.05;99245.48;126313;1099;104175;-79
2022/01/31 02:25:27;;;;;;;3.97;1.60;;;;;;;3.91;64.27;99241.17;126332;1097;104622;-77
2022/01/31 02:28:25;;;;;;;4.40;1.87;;;;;;;3.89;64.62;99235.92;126218;1099;104153;-78
2022/01/31 02:30:59;;;;;;;4.80;1.40;;;;;;;3.90;64.25;99239.42;126252;1099;104258;-78
2022/01/31 02:33:32;;;;;;;2.93;1.53;;;;;;;3.89;64.68;99245.42;126330;1099;104280;-78
2022/01/31 02:36:06;;;;;;;4.37;1.90;;;;;;;3.87;64.08;99250.55;126304;1099;104204;-77
2022/01/31 02:38:40;;;;;;;3.43;1.73;;;;;;;3.85;63.74;99262.58;126279;1099;105254;-77
2022/01/31 02:41:12;;;;;;;4.70;1.80;;;;;;;3.86;62.67;99256.55;126353;1099;104162;-77
2022/01/31 02:43:49;;;;;;;4.17;1.40;;;;;;;3.87;63.12;99242.77;126325;1099;104230;-78
2022/01/31 02:46:24;;;;;;;3.10;1.67;;;;;;;3.89;63.15;99254.08;126310;1099;104145;-78
2022/01/31 02:48:57;;;;;;;6.27;1.70;;;;;;;3.90;63.45;99248.08;126250;1099;104169;-78
2022/01/31 02:51:31;;;;;;;5.50;1.80;;;;;;;3.90;63.85;99245.48;126278;1099;112013;-78
2022/01/31 02:54:05;;;;;;;6.03;2.03;;;;;;;3.90;63.39;99250.67;126254;1099;104778;-78
2022/01/31 02:56:37;;;;;;;3.63;1.80;;;;;;;3.90;62.92;99237.70;126321;1099;104144;-78
2022/01/31 02:59:09;;;;;;;4.00;1.77;;;;;;;3.90;63.84;99248.08;126318;1099;104149;-78
2022/01/31 03:01:42;;;;;;;8.00;2.00;;;;;;;3.91;62.57;99256.74;126225;1099;104221;-78
2022/01/31 03:04:14;;;;;;;4.67;1.90;;;;;;;3.91;63.76;99252.46;126325;1099;104207;-78
2022/01/31 03:06:49;;;;;;;3.97;1.63;;;;;;;3.92;63.38;99256.81;126287;1099;104216;-79
2022/01/31 03:09:22;;;;;;;4.90;2.00;;;;;;;3.94;62.80;99256.88;126257;1099;104210;-79
2022/01/31 03:11:57;;;;;;;5.10;1.73;;;;;;;3.95;62.80;99256.94;126248;1099;107862;-79
2022/01/31 03:14:33;;;;;;;4.57;1.87;;;;;;;3.98;62.75;99257.91;126250;1099;104143;-78
2022/01/31 03:17:06;;;;;;;3.40;1.63;;;;;;;3.99;62.88;99270.05;126280;1098;104195;-78
2022/01/31 03:19:42;;;;;;;5.40;2.00;;;;;;;4.03;61.97;99264.17;126346;1099;104149;-78
2022/01/31 03:22:14;;;;;;;6.33;1.70;;;;;;;4.05;61.21;99266.02;126372;1099;118907;-78
2022/01/31 03:24:45;;;;;;;5.27;1.63;;;;;;;4.07;62.18;99274.75;126312;1099;104272;-77
2022/01/31 03:27:17;;;;;;;3.13;1.37;;;;;;;4.09;61.99;99267.91;126327;1099;104242;-78
2022/01/31 03:29:48;;;;;;;2.73;1.70;;;;;;;4.09;62.40;99267.02;126330;1098;104274;-77
2022/01/31 03:32:20;;;;;;;4.13;1.70;;;;;;;4.08;61.30;99267.84;126189;1099;104146;-78
2022/01/31 03:34:51;;;;;;;3.30;1.60;;;;;;;4.09;62.22;99267.02;126268;1099;104277;-78
2022/01/31 03:37:22;;;;;;;4.63;1.57;;;;;;;4.08;62.85;99270.44;126215;1099;104296;-78
2022/01/31 03:39:54;;;;;;;4.83;2.07;;;;;;;4.06;62.38;99279.88;126258;1099;104168;-79
2022/01/31 03:42:25;;;;;;;3.50;1.53;;;;;;;4.05;62.74;99280.69;126241;1099;104220;-78
2022/01/31 03:44:57;;;;;;;5.03;1.63;;;;;;;4.03;62.74;99282.34;126316;1096;104176;-78
2022/01/31 03:47:28;;;;;;;5.80;1.70;;;;;;;4.01;62.57;99291.78;126261;1099;104195;-79
2022/01/31 03:50:01;;;;;;;3.43;1.83;;;;;;;3.98;62.16;99282.15;126338;1099;104271;-77
2022/01/31 03:52:33;;;;;;;3.07;1.40;;;;;;;3.97;62.46;99282.95;126247;1098;104144;-77
2022/01/31 03:55:05;;;;;;;2.10;1.53;;;;;;;3.96;63.08;99291.59;126250;1099;104195;-78
2022/01/31 03:57:37;;;;;;;1.93;1.47;;;;;;;3.96;61.16;99297.66;126284;1099;104181;-78
2022/01/31 04:00:27;;;;;;;4.90;1.57;;;;;;;3.96;61.57;99297.66;126204;1099;104197;-79
2022/01/31 04:02:59;;;;;;;3.63;1.40;;;;;;;3.97;62.23;99308.91;126135;1099;105213;-78
2022/01/31 04:05:31;;;;;;;4.10;1.73;;;;;;;3.96;62.21;99313.23;126325;1099;104158;-78
2022/01/31 04:08:02;;;;;;;3.47;1.60;;;;;;;3.93;61.55;99322.61;126291;1099;105243;-78
2022/01/31 04:10:34;;;;;;;3.40;1.80;;;;;;;3.90;61.53;99315.56;126263;1099;104198;-78
2022/01/31 04:13:06;;;;;;;3.37;1.43;;;;;;;3.89;60.87;99320.69;126128;1099;104160;-77
2022/01/31 04:15:39;;;;;;;2.97;1.73;;;;;;;3.83;60.90;99318.70;126107;1099;104242;-77
2022/01/31 04:18:10;;;;;;;6.07;2.00;;;;;;;3.82;60.59;99313.44;126153;1099;104191;-76
2022/01/31 04:20:43;;;;;;;4.53;1.87;;;;;;;3.81;60.61;99306.50;126097;1097;104258;-77
2022/01/31 04:23:17;;;;;;;7.17;1.80;;;;;;;3.78;61.31;99321.09;125983;1096;104181;-77
2022/01/31 04:25:54;;;;;;;6.87;1.87;;;;;;;3.75;61.07;99322.67;126159;1099;104153;-76
2022/01/31 04:28:31;;;;;;;4.97;1.60;;;;;;;3.74;60.30;99323.48;126146;1099;104182;-76
2022/01/31 04:31:13;;;;;;;7.67;1.80;;;;;;;3.74;61.19;99332.18;126206;1099;104184;-77
2022/01/31 04:33:45;;;;;;;4.87;1.43;;;;;;;3.74;60.50;99336.45;126131;1096;111643;-77
2022/01/31 04:36:17;;;;;;;6.27;1.60;;;;;;;3.73;59.60;99343.36;126255;1099;104149;-78
2022/01/31 04:38:50;;;;;;;9.07;2.03;;;;;;;3.73;60.71;99332.11;126305;1099;104185;-78
2022/01/31 04:41:21;;;;;;;6.33;1.90;;;;;;;3.73;60.73;99345.08;126310;1099;104175;-78
2022/01/31 04:43:56;;;;;;;4.60;1.60;;;;;;;3.73;59.96;99355.46;126276;1096;104309;-78
2022/01/31 04:46:30;;;;;;;6.03;1.60;;;;;;;3.74;60.34;99354.62;126330;1099;104147;-78
2022/01/31 04:49:03;;;;;;;9.38;2.20;;;;;;;3.76;60.57;99355.59;126272;1099;104255;-77
2022/01/31 04:51:35;;;;;;;9.33;1.90;;;;;;;3.76;60.35;99346.09;126368;1099;104181;-78
2022/01/31 04:54:06;;;;;;;6.13;1.80;;;;;;;3.75;59.92;99371.97;126224;1099;104147;-77
2022/01/31 04:56:40;;;;;;;7.03;2.00;;;;;;;3.76;60.51;99356.47;126185;1099;104255;-78
2022/01/31 04:59:12;;;;;;;3.27;1.77;;;;;;;3.76;60.33;99355.59;126286;1099;104272;-78
2022/01/31 05:01:46;;;;;;;5.90;1.83;;;;;;;3.76;60.50;99360.78;126209;1099;104265;-78
2022/01/31 05:04:17;;;;;;;3.20;1.57;;;;;;;3.74;60.12;99372.78;126174;1099;104159;-78
2022/01/31 05:06:49;;;;;;;5.07;1.57;;;;;;;3.72;60.31;99364.05;126157;1099;104335;-78
2022/01/31 05:09:21;;;;;;;5.30;1.83;;;;;;;3.70;60.34;99370.89;126152;1099;104230;-77
2022/01/31 05:11:55;;;;;;;4.43;2.00;;;;;;;3.68;60.60;99372.54;126188;1099;104273;-78
2022/01/31 05:14:26;;;;;;;5.73;2.03;;;;;;;3.67;60.47;99381.13;126169;1099;104258;-78
2022/01/31 05:16:58;;;;;;;4.27;1.73;;;;;;;3.64;60.70;99375.80;126207;1099;104736;-77
2022/01/31 05:19:29;;;;;;;3.43;1.73;;;;;;;3.63;60.51;99393.08;126203;1099;105202;-78
2022/01/31 05:22:00;;;;;;;5.27;1.67;;;;;;;3.63;60.23;99376.61;126295;1097;104149;-77
2022/01/31 05:24:32;;;;;;;6.37;1.83;;;;;;;3.62;61.13;99388.70;126251;1099;104179;-78
2022/01/31 05:27:04;;;;;;;3.03;1.70;;;;;;;3.63;61.24;99392.17;126286;1099;104156;-78
2022/01/31 05:29:35;;;;;;;4.10;1.70;;;;;;;3.60;60.77;99390.35;126238;1099;104213;-77
2022/01/31 05:32:08;;;;;;;3.37;2.10;;;;;;;3.59;60.33;99398.94;126216;1099;104288;-78
2022/01/31 05:34:40;;;;;;;4.87;2.30;;;;;;;3.57;61.01;99392.80;126253;1099;104175;-78
2022/01/31 05:37:11;;;;;;;2.90;1.67;;;;;;;3.54;61.10;99406.51;126236;1099;104182;-76
2022/01/31 05:39:45;;;;;;;5.27;2.00;;;;;;;3.53;61.32;99407.31;126246;1099;104143;-77
2022/01/31 05:42:17;;;;;;;6.97;2.05;;;;;;;3.53;61.00;99409.03;126190;1098;104240;-76
2022/01/31 05:44:48;;;;;;;4.53;1.83;;;;;;;3.52;61.65;99413.34;126142;1099;102327;-78
2022/01/31 05:47:19;;;;;;;8.50;2.00;;;;;;;3.51;61.05;99406.37;126273;1099;104159;-76
2022/01/31 05:49:51;;;;;;;6.50;2.03;;;;;;;3.55;61.20;99416.08;126268;1099;104146;-78
2022/01/31 05:52:22;;;;;;;5.40;1.63;;;;;;;3.55;61.12;99413.48;126353;1099;104153;-78
2022/01/31 05:54:54;;;;;;;7.17;2.20;;;;;;;3.58;61.05;99417.91;126209;1099;104221;-78
2022/01/31 05:57:27;;;;;;;4.25;1.90;;;;;;;3.58;61.27;99418.81;126285;1099;104249;-77
2022/01/31 05:59:59;;;;;;;4.93;2.20;;;;;;;3.62;61.52;99416.36;126293;1099;104172;-78
2022/01/31 06:02:33;;;;;;;3.30;2.17;;;;;;;3.64;60.92;99415.59;126260;1099;104149;-78
2022/01/31 06:05:06;;;;;;;7.40;2.25;;;;;;;3.68;60.98;99414.05;126165;1099;104172;-79
2022/01/31 06:07:37;;;;;;;5.03;1.77;;;;;;;3.69;61.08;99421.00;126218;1099;104156;-79
2022/01/31 06:10:10;;;;;;;6.43;2.10;;;;;;;3.72;60.68;99422.02;126180;1099;104281;-79
2022/01/31 06:12:42;;;;;;;5.43;2.10;;;;;;;3.76;61.64;99430.84;126293;1099;104159;-79
2022/01/31 06:15:14;;;;;;;4.70;2.07;;;;;;;3.78;61.21;99431.80;126172;1099;104239;-79
2022/01/31 06:17:45;;;;;;;6.73;2.40;;;;;;;3.80;61.10;99424.95;126075;1099;104181;-80
2022/01/31 06:20:19;;;;;;;6.80;2.45;;;;;;;3.78;61.25;99444.77;126025;1099;104268;-78
2022/01/31 06:22:53;;;;;;;5.25;2.30;;;;;;;3.76;61.65;99425.66;126048;1099;104165;-78
2022/01/31 06:25:25;;;;;;;6.50;2.80;;;;;;;3.78;61.66;99436.98;126163;1099;104149;-79
2022/01/31 06:28:00;;;;;;;6.83;2.70;;;;;;;3.83;61.74;99422.50;125900;1100;104178;-79
2022/01/31 06:30:33;;;;;;;6.23;2.07;;;;;;;3.84;61.58;99434.67;125976;1099;104274;-80
2022/01/31 06:33:05;;;;;;;5.13;2.10;;;;;;;3.88;60.47;99425.30;125979;1099;104342;-78
2022/01/31 06:35:37;;;;;;;7.90;2.20;;;;;;;3.89;60.91;99425.38;126017;1099;104258;-79
2022/01/31 06:38:09;;;;;;;4.43;2.10;;;;;;;3.91;61.25;99428.95;126057;1099;104185;-79
2022/01/31 06:40:41;;;;;;;7.33;2.67;;;;;;;3.94;61.64;99438.56;125890;1099;104169;-78
2022/01/31 06:43:16;;;;;;;5.03;2.63;;;;;;;3.95;61.04;99441.22;125952;1099;104210;-77
2022/01/31 06:45:47;;;;;;;;;;;;;;;3.98;61.82;99429.23;125836;1099;104182;-77
2022/01/31 06:48:22;;;;;;;9.73;3.30;;;;;;;3.97;61.67;99433.50;125886;1099;104248;-79
2022/01/31 06:50:54;;;;;;;9.67;3.03;;;;;;;3.97;61.29;99436.10;125900;1099;104147;-79
2022/01/31 06:53:28;;;;;;;8.73;2.97;;;;;;;3.99;61.39;99436.17;125894;1099;104146;-79
2022/01/31 06:56:14;;;;;;;7.53;3.27;;;;;;;4.00;61.77;99438.83;126031;1099;104146;-79
2022/01/31 06:58:49;;;;;;;9.93;3.03;;;;;;;4.06;61.57;99446.02;125842;1099;104226;-78
2022/01/31 07:01:24;;;;;;;10.20;3.53;;;;;;;4.09;61.70;99444.44;125834;1097;104316;-78
2022/01/31 07:03:59;;;;;;;11.60;4.00;;;;;;;4.13;61.18;99450.68;126134;1099;104189;-77
2022/01/31 07:06:31;;;;;;;13.37;3.90;;;;;;;4.16;61.70;99450.81;125952;1099;104172;-78
2022/01/31 07:09:03;;;;;;;11.33;3.70;;;;;;;4.18;61.22;99448.29;125866;1099;104181;-77
2022/01/31 07:11:40;;;;;;;10.87;3.53;;;;;;;4.23;62.30;99442.45;125874;1099;104144;-78
2022/01/31 07:14:29;;;;;;;9.73;3.13;;;;;;;4.27;61.53;99444.37;125782;1099;104667;-78
2022/01/31 07:17:05;;;;;;;7.73;3.17;;;;;;;4.31;62.07;99451.46;125850;1099;105092;-78
2022/01/31 07:19:42;;;;;;;5.73;2.97;;;;;;;4.33;61.95;99443.73;125784;1099;104246;-78
2022/01/31 07:22:19;;;;;;;8.30;3.07;;;;;;;4.37;62.11;99452.58;125944;1099;104146;-78
2022/01/31 07:25:02;;;;;;;9.07;3.30;;;;;;;4.40;61.80;99450.11;125974;1099;104205;-78
2022/01/31 07:27:33;;;;;;;8.63;3.70;;;;;;;4.42;61.76;99453.66;125984;1099;107031;-79
2022/01/31 07:30:10;;;;;;;8.60;4.17;;;;;;;4.46;61.95;99451.25;125963;1099;104181;-79
2022/01/31 07:32:44;;;;;;;13.13;3.43;;;;;;;4.51;61.65;99461.84;126044;1099;104220;-78
2022/01/31 07:35:17;;;;;;;10.40;2.95;;;;;;;4.54;60.83;99455.91;125998;1099;104277;-79
2022/01/31 07:37:51;;;;;;;8.65;2.40;;;;;;;4.58;60.26;99461.30;125914;1099;120229;-81
2022/01/31 07:40:25;;;;;;;5.60;2.47;;;;;;;4.65;60.71;99452.05;125939;1099;104367;-79
2022/01/31 07:42:58;;;;;;;9.33;2.50;;;;;;;4.72;59.82;99450.58;126073;1099;104156;-78
2022/01/31 07:45:33;;;;;;;11.43;2.87;;;;;;;4.78;60.05;99453.44;125926;1099;105802;-80
2022/01/31 07:48:08;;;;;;;7.50;2.50;;;;;;;4.83;59.51;99445.03;125991;1099;104171;-79
2022/01/31 07:50:44;;;;;;;7.50;2.70;;;;;;;4.89;59.60;99454.77;125850;1099;104174;-79
2022/01/31 07:53:17;;;;;;;;;;;;;;;4.92;57.93;99451.42;125950;1099;104246;-78
2022/01/31 07:55:52;;;;;;;7.00;2.57;;;;;;;4.96;59.38;99455.94;126030;1099;104181;-80
2022/01/31 07:58:28;;;;;;;8.17;2.37;;;;;;;4.94;57.13;99463.67;125921;1099;110867;-80
2022/01/31 08:01:13;;;;;;;8.10;2.57;;;;;;;4.96;58.43;99461.13;125755;1099;104281;-80
2022/01/31 08:03:50;;;;;;;4.55;2.05;;;;;;;5.01;57.77;99472.60;125779;1099;104357;-81
2022/01/31 08:06:24;;;;;;;6.97;2.60;;;;;;;5.00;57.52;99476.02;125874;1099;105612;-79
2022/01/31 08:08:58;;;;;;;8.73;2.33;;;;;;;5.01;58.32;99478.68;125773;1099;104241;-79
2022/01/31 08:11:34;;;;;;;6.33;2.27;;;;;;;5.03;57.07;99494.34;125913;1099;104184;-79
2022/01/31 08:14:10;;;;;;;8.90;2.20;;;;;;;5.06;57.56;99477.99;125797;1099;104230;-80
2022/01/31 08:16:45;;;;;;;6.40;2.00;;;;;;;5.11;57.16;99489.46;125820;1099;104528;-81
2022/01/31 08:19:21;;;;;;;5.80;2.03;;;;;;;5.15;57.87;99473.17;125952;1099;104172;-82
2022/01/31 08:21:59;;;;;;;5.10;2.27;;;;;;;5.22;57.44;99481.28;125795;1099;104262;-80
2022/01/31 08:24:32;;;;;;;10.30;2.50;;;;;;;5.26;57.13;99487.49;125796;1099;104274;-78
2022/01/31 08:27:06;;;;;;;4.87;2.07;;;;;;;5.30;57.85;99492.00;125902;1099;104227;-79
2022/01/31 08:29:40;;;;;;;12.37;3.07;;;;;;;5.35;58.27;99481.78;125855;1099;104249;-79
2022/01/31 08:32:18;;;;;;;11.30;3.20;;;;;;;5.38;58.12;99493.19;125835;1099;104245;-79
2022/01/31 08:37:46;;;;;;;13.40;2.80;;;;;;;5.49;58.06;99485.81;126026;1099;104313;-79
2022/01/31 08:40:21;;;;;;;9.80;3.20;;;;;;;5.53;58.18;99479.92;126146;1099;104155;-79
2022/01/31 08:42:57;;;;;;;10.27;2.90;;;;;;;5.61;58.23;99492.33;125851;1099;104274;-80
2022/01/31 08:45:31;;;;;;;6.65;2.15;;;;;;;5.65;58.30;99484.70;125928;1098;104172;-80
2022/01/31 08:48:04;;;;;;;8.95;3.00;;;;;;;5.70;57.84;99484.88;125936;1099;104146;-79
2022/01/31 08:50:42;;;;;;;9.20;2.77;;;;;;;5.76;58.13;99483.42;125809;1099;104156;-79
2022/01/31 08:53:16;;;;;;;7.30;2.57;;;;;;;5.81;57.87;99480.09;125738;1099;104812;-79
2022/01/31 08:55:53;;;;;;;7.50;2.93;;;;;;;5.80;57.28;99463.59;125804;1099;104178;-80
2022/01/31 08:58:29;;;;;;;6.40;2.03;;;;;;;5.78;56.50;99492.98;125697;1099;104299;-81
2022/01/31 09:01:06;;;;;;;7.87;2.70;;;;;;;5.71;56.31;99481.45;125084;1099;104322;-79
2022/01/31 09:03:55;;;;;;;6.80;2.23;;;;;;;5.65;54.15;99478.61;125853;1099;104245;-79
2022/01/31 09:06:32;;;;;;;8.90;2.70;;;;;;;5.60;55.13;99474.95;125847;1099;104214;-79
2022/01/31 09:09:12;;;;;;;5.40;2.33;;;;;;;5.58;55.16;99465.36;125780;1099;104297;-79
2022/01/31 09:11:47;;;;;;;7.10;2.53;;;;;;;5.51;53.43;99447.72;125628;1100;104392;-80
2022/01/31 09:14:21;;;;;;;6.37;2.37;;;;;;;5.58;53.32;99467.09;125714;1099;104302;-81
2022/01/31 09:16:55;;;;;;;5.80;2.62;;;;;;;5.56;53.85;99455.70;125720;1099;104207;-80
2022/01/31 09:19:28;;;;;;;8.33;2.83;;;;;;;5.61;54.40;99448.08;125280;1099;104198;-78
2022/01/31 09:22:02;;;;;;;3.80;2.20;;;;;;;5.62;54.20;99442.94;125901;1099;104178;-79
2022/01/31 09:24:38;;;;;;;8.53;2.90;;;;;;;5.65;52.81;99450.86;125661;1099;104204;-79
2022/01/31 09:27:11;;;;;;;7.43;2.33;;;;;;;5.64;52.71;99445.59;125646;1099;104239;-78
2022/01/31 09:29:44;;;;;;;13.75;3.08;;;;;;;5.66;52.95;99434.42;125744;1099;104274;-78
2022/01/31 09:32:21;;;;;;;13.47;2.80;;;;;;;5.71;53.64;99434.61;125775;1099;104143;-81
2022/01/31 09:34:53;;;;;;;8.37;3.03;;;;;;;5.74;53.83;99432.99;125770;1099;104274;-80
2022/01/31 09:37:26;;;;;;;8.70;2.70;;;;;;;5.83;53.68;99437.67;125928;1099;104297;-79
2022/01/31 09:40:04;;;;;;;9.47;2.90;;;;;;;5.87;53.46;99423.05;126071;1099;104149;-80
2022/01/31 09:42:41;;;;;;;5.50;2.43;;;;;;;5.89;52.56;99432.70;125890;1099;104315;-81
2022/01/31 09:45:23;;;;;;;8.47;2.97;;;;;;;5.92;52.92;99426.70;126014;1099;103457;-77
2022/01/31 09:50:50;;;;;;;9.10;2.43;;;;;;;5.97;51.58;99433.02;125910;1099;109520;-79
2022/01/31 09:53:25;;;;;;;9.20;2.80;;;;;;;5.99;51.64;99430.47;126130;1099;104194;-76
2022/01/31 09:55:58;;;;;;;6.20;2.40;;;;;;;6.01;51.28;99441.81;125940;1099;104140;-78
2022/01/31 09:58:34;;;;;;;7.53;2.50;;;;;;;6.04;52.25;99432.39;125857;1099;104197;-79
2022/01/31 10:01:12;;;;;;;7.43;2.67;;;;;;;6.12;52.30;99435.27;125949;1099;117655;-78
2022/01/31 10:03:52;;;;;;;6.27;2.80;;;;;;;6.18;51.87;99439.83;126018;1099;104136;-78
2022/01/31 10:06:31;;;;;;;8.38;2.70;;;;;;;6.18;50.81;99450.25;125853;1097;104351;-77
2022/01/31 10:09:07;;;;;;;9.10;2.60;;;;;;;6.09;50.06;99446.48;126056;1099;105556;-77
2022/01/31 10:11:45;;;;;;;3.87;2.30;;;;;;;6.04;51.01;99453.22;125940;1099;104217;-78
2022/01/31 10:17:12;;;;;;;5.23;2.57;;;;;;;5.83;51.41;99473.21;125115;1099;104379;-77
2022/01/31 10:19:49;;;;;;;9.20;3.63;;;;;;;5.80;52.53;99480.91;125675;1099;104155;-80
2022/01/31 10:22:27;;;;;;;7.47;2.83;;;;;;;5.85;53.21;99468.97;125797;1099;104357;-80
2022/01/31 10:25:08;;;;;;;8.77;2.97;;;;;;;5.83;53.45;99465.41;125072;1102;104290;-80
2022/01/31 10:27:46;;;;;;;7.57;2.77;;;;;;;5.84;54.03;99461.98;125131;1100;104373;-78
2022/01/31 10:30:26;;;;;;;5.23;2.50;;;;;;;5.86;53.96;99462.91;125015;1102;104175;-77
2022/01/31 10:33:01;;;;;;;7.60;2.80;;;;;;;5.87;54.25;99457.77;125157;1099;104178;-78
2022/01/31 10:35:38;;;;;;;5.23;2.70;;;;;;;5.85;54.29;99449.02;125134;1101;104179;-81
2022/01/31 10:38:18;;;;;;;9.97;2.70;;;;;;;5.84;53.87;99454.17;125106;1102;104344;-78
2022/01/31 10:52:33;;;;;;;8.93;3.30;;;;;;;5.71;54.20;99443.29;125144;1102;104293;-81
2022/01/31 10:55:21;;;;;;;9.63;3.20;;;;;;;5.74;54.29;99443.41;125058;1099;104201;-80
2022/01/31 10:58:10;;;;;;;9.80;3.13;;;;;;;5.78;53.75;99444.44;125901;1099;104160;-80
2022/01/31 11:00:45;;;;;;;9.33;3.10;;;;;;;5.79;53.92;99446.19;125938;1099;104315;-80
2022/01/31 11:03:33;;;;;;;12.47;3.07;;;;;;;5.87;53.96;99449.95;125855;1099;104140;-82
2022/01/31 11:06:14;;;;;;;9.70;3.30;;;;;;;6.00;53.70;99440.94;125869;1099;104169;-82
2022/01/31 11:08:47;;;;;;;6.67;3.10;;;;;;;6.13;53.98;99433.58;125695;1099;104287;-83
2022/01/31 11:11:22;;;;;;;9.20;3.70;;;;;;;6.18;53.41;99437.23;125594;1098;104149;-81
2022/01/31 11:13:59;;;;;;;9.60;3.40;;;;;;;6.15;52.64;99431.91;125726;1099;104570;-78
2022/01/31 11:16:34;;;;;;;8.03;3.00;;;;;;;6.04;53.32;99432.39;125712;1099;104274;-80
2022/01/31 11:19:11;;;;;;;7.63;3.03;;;;;;;5.95;53.15;99434.62;125729;1099;104287;-81
2022/01/31 11:21:50;;;;;;;10.97;3.10;;;;;;;5.87;53.40;99449.08;125663;1099;104306;-80
2022/01/31 11:24:30;;;;;;;8.30;2.90;;;;;;;5.74;52.49;99437.32;125635;1099;104628;-79
2022/01/31 11:27:09;;;;;;;7.73;3.17;;;;;;;5.63;52.80;99449.92;125930;1099;102767;-80
2022/01/31 11:29:45;;;;;;;9.43;3.00;;;;;;;5.55;53.29;99444.42;125795;1099;104166;-78
2022/01/31 11:32:20;;;;;;;11.83;3.60;;;;;;;5.52;53.42;99436.50;125861;1099;104200;-80
2022/01/31 11:34:56;;;;;;;10.83;3.27;;;;;;;5.55;53.27;99436.62;125932;1099;104162;-81
2022/01/31 11:37:35;;;;;;;8.40;3.10;;;;;;;5.60;53.22;99428.98;125996;1099;104337;-81
2022/01/31 11:40:17;;;;;;;9.97;3.30;;;;;;;5.66;53.34;99428.34;125448;1099;104240;-82
2022/01/31 11:42:52;;;;;;;8.30;3.10;;;;;;;5.70;53.17;99425.92;125620;1099;104325;-82
2022/01/31 11:45:29;;;;;;;7.07;3.10;;;;;;;5.78;53.50;99427.91;125063;1099;104420;-80
2022/01/31 11:48:08;;;;;;;5.70;3.10;;;;;;;5.84;53.23;99422.92;125762;1099;104181;-80
2022/01/31 11:50:49;;;;;;;8.37;2.90;;;;;;;5.90;53.21;99423.16;125191;1099;104346;-79
2022/01/31 11:53:49;;;;;;;10.83;3.40;;;;;;;5.92;53.12;99429.30;125885;1099;104267;-80
2022/01/31 11:56:48;;;;;;;5.67;3.10;;;;;;;5.94;53.07;99425.05;125305;1103;104315;-82
2022/01/31 11:59:28;;;;;;;10.93;3.30;;;;;;;5.91;52.44;99419.73;125245;1102;104261;-82
2022/01/31 12:02:01;;;;;;;11.13;2.80;;;;;;;5.86;52.55;99416.05;125048;1102;105236;-81
2022/01/31 12:04:49;;;;;;;10.83;3.03;;;;;;;5.80;51.71;99419.33;125838;1099;104335;-82
2022/01/31 12:07:45;;;;;;;8.93;3.10;;;;;;;5.68;51.68;99421.47;125861;1099;104149;-82
2022/01/31 12:10:40;;;;;;;6.43;2.37;;;;;;;5.60;51.77;99428.98;125998;1099;104222;-82
2022/01/31 12:13:39;;;;;;;5.73;2.50;;;;;;;5.58;51.86;99431.53;126016;1099;104185;-80
2022/01/31 12:16:58;;;;;;;9.33;2.97;;;;;;;5.57;52.19;99429.74;125988;1099;104165;-80
2022/01/31 12:19:59;;;;;;;12.53;3.35;;;;;;;5.54;52.38;99437.43;126222;1099;104147;-79
2022/01/31 12:22:48;;;;;;;11.40;4.10;;;;;;;5.53;52.73;99442.58;126167;1097;104208;-79